Decoded Metar for KECG (ELIZABETH CITY in NC, USA) (IATA:ECG) | Meteo·Mobile Aviation Weather
aviador You're here:

KECG Decoded Metar

ELIZABETH CITY in NC, USA
Report Time2018-11-19 09:54:00
UTC Time2018-11-19 10:03:46
Flight Rules vfr VFR
WindCalm
Visibility9999 m
Phenomena:N/A
Clouds:Broken 060 Hf
Broken 070 Hf
Overcast 095 Hf
Expected CloudBase > 400 ft AGL from Temp-Dew spread
Ceiling6,000 ft
Temp08°C (ISA -7)
Dew Point07°C (93% RH)
AAT7.3°C
QNH1022 hPa
Density Alt-965 ft
Elevation36 ft
Report Wrong Elevation
Raw Report
METAR KECG 190954Z AUTO 00000KT 8SM BKN060 BKN070 OVC095 08/07 A3018
RMK AO2 SLP218 T00830072=

Extra information for KECG:More info

Metar Taf Metar & Taf Last 4 Metars F.Rules Stats Wind Profile Meteogram Temp Stats Airport Information Weather charts Add Link Nearby VenuesMetar ALERT Operation Metar Decoded Social comments

AIRNAV info for KECG